Terminal Aerodrome Forecast
Issued by NWS Sioux Falls, SD

Home | Current Version | Previous Version | Graphics & Text | Print | Product List | Glossary On
Versions: 1 2 3 4 5 6 7 8 9 10 11 12 13 14 15 16 17 18
000
FTUS43 KFSD 161900 AAA
TAFFSD
TAF AMD
KFSD 161909Z 1619/1718 34021G32KT 3SM -SN BKN015 OVC025
      TEMPO 1619/1622 1SM -SN
     FM162200 35021G28KT P6SM OVC020
     FM170300 35014G20KT P6SM OVC025
     FM170900 34009KT P6SM BKN012
     FM171400 35013KT P6SM SCT017=

USA.gov is the U.S. government's official web portal to all federal, state and local government web resources and services.